Time;durP1;ratioP1;P1;durP2;ratioP2;P2;SDS_P1;SDS_P2;PMS_P1;PMS_P2;Temp;Humidity;BMP_temperature;BMP_pressure;BME280_temperature;BME280_humidity;BME280_pressure;Samples;Min_cycle;Max_cycle;Signal;HPM_P1;HPM_P2
2024/01/05 00:02:07;;;;;;;19.10;7.78;;;4.30;99.90;;;;;;5013326;28;20088;-72
2024/01/05 00:04:32;;;;;;;19.45;8.35;;;4.30;99.90;;;;;;5007805;28;20088;-73
2024/01/05 00:06:58;;;;;;;19.70;8.65;;;4.30;99.90;;;;;;5006446;28;20496;-72
2024/01/05 00:09:23;;;;;;;20.08;8.52;;;4.30;99.90;;;;;;5005628;28;20125;-72
2024/01/05 00:11:51;;;;;;;15.57;7.63;;;4.30;99.90;;;;;;4991598;28;20042;-72
2024/01/05 00:14:17;;;;;;;25.52;8.25;;;4.30;99.90;;;;;;4991382;28;20046;-72
2024/01/05 00:16:42;;;;;;;16.83;9.10;;;4.30;99.90;;;;;;4994089;28;20112;-72
2024/01/05 00:19:08;;;;;;;19.50;8.05;;;4.30;99.90;;;;;;5007730;28;20125;-72
2024/01/05 00:21:33;;;;;;;18.00;8.70;;;4.30;99.90;;;;;;5009159;28;20336;-72
2024/01/05 00:23:59;;;;;;;23.55;8.85;;;4.30;99.90;;;;;;5007460;28;20113;-72
2024/01/05 00:26:25;;;;;;;20.38;9.07;;;4.30;99.90;;;;;;5005194;28;20488;-72
2024/01/05 00:28:51;;;;;;;20.42;10.40;;;4.30;99.90;;;;;;4979674;28;20507;-72
2024/01/05 00:31:17;;;;;;;17.63;9.25;;;4.30;99.90;;;;;;5012288;28;20492;-72
2024/01/05 00:33:43;;;;;;;20.17;8.93;;;4.30;99.90;;;;;;5013684;28;20037;-73
2024/01/05 00:36:10;;;;;;;21.25;8.75;;;4.30;99.90;;;;;;5013562;28;20041;-72
2024/01/05 00:38:36;;;;;;;18.63;8.55;;;4.20;99.90;;;;;;5013061;28;20100;-73
2024/01/05 00:41:02;;;;;;;20.40;8.70;;;4.20;99.90;;;;;;4995270;28;20443;-72
2024/01/05 00:43:28;;;;;;;20.20;9.02;;;4.20;99.90;;;;;;5013707;28;20500;-72
2024/01/05 00:45:55;;;;;;;22.45;9.23;;;4.20;99.90;;;;;;4995803;28;20037;-72
2024/01/05 00:48:20;;;;;;;23.73;9.13;;;4.20;99.90;;;;;;4995857;28;20077;-72
2024/01/05 00:50:46;;;;;;;25.08;10.15;;;4.20;99.90;;;;;;4973721;28;20100;-72
2024/01/05 00:53:12;;;;;;;19.55;9.48;;;4.20;99.90;;;;;;5013319;28;20061;-72
2024/01/05 00:55:37;;;;;;;21.95;9.75;;;4.20;99.90;;;;;;4995697;28;20030;-72
2024/01/05 00:58:04;;;;;;;24.13;9.57;;;4.20;99.90;;;;;;4995465;28;20046;-72
2024/01/05 01:00:30;;;;;;;21.40;9.30;;;4.20;99.90;;;;;;4995024;28;20480;-72
2024/01/05 01:02:55;;;;;;;18.88;8.52;;;4.20;99.90;;;;;;4977111;28;20050;-73
2024/01/05 01:05:21;;;;;;;19.45;9.15;;;4.20;99.90;;;;;;5013331;28;20403;-72
2024/01/05 01:07:47;;;;;;;17.98;8.85;;;4.10;99.90;;;;;;4995111;28;20037;-72
2024/01/05 01:10:13;;;;;;;20.88;8.85;;;4.10;99.90;;;;;;4994674;28;20033;-72
2024/01/05 01:12:38;;;;;;;23.15;10.13;;;4.10;99.90;;;;;;5011682;28;20095;-72
2024/01/05 01:15:05;;;;;;;20.27;9.75;;;4.10;99.90;;;;;;5012050;28;20038;-72
2024/01/05 01:17:31;;;;;;;20.38;9.38;;;4.10;99.90;;;;;;5012426;28;20034;-72
2024/01/05 01:19:56;;;;;;;21.30;9.20;;;4.10;99.90;;;;;;5011687;28;20046;-72
2024/01/05 01:22:22;;;;;;;25.40;9.10;;;4.10;99.90;;;;;;4994162;28;20423;-72
2024/01/05 01:24:48;;;;;;;19.73;8.60;;;4.10;99.90;;;;;;5011638;28;20042;-72
2024/01/05 01:27:14;;;;;;;20.52;8.82;;;4.10;99.90;;;;;;5012322;28;20034;-72
2024/01/05 01:29:39;;;;;;;21.63;8.95;;;4.10;99.90;;;;;;5011574;28;20042;-72
2024/01/05 01:32:05;;;;;;;18.02;8.98;;;4.10;99.90;;;;;;5011769;28;20384;-72
2024/01/05 01:34:31;;;;;;;19.70;9.32;;;4.10;99.90;;;;;;5011890;28;20065;-72
2024/01/05 01:36:56;;;;;;;19.77;8.77;;;4.20;99.90;;;;;;5011851;28;20041;-72
2024/01/05 01:39:22;;;;;;;17.77;8.38;;;4.10;99.90;;;;;;5011946;28;20040;-72
2024/01/05 01:41:47;;;;;;;16.38;7.85;;;4.10;99.90;;;;;;5007056;28;20048;-72
2024/01/05 01:44:13;;;;;;;19.25;8.48;;;4.10;99.90;;;;;;4994355;28;20034;-72
2024/01/05 01:46:39;;;;;;;18.92;8.82;;;4.10;99.90;;;;;;5012197;28;20080;-72
2024/01/05 01:49:05;;;;;;;19.13;8.85;;;4.10;99.90;;;;;;5010648;28;20034;-72
2024/01/05 01:51:32;;;;;;;18.83;8.73;;;4.10;99.90;;;;;;5011136;28;20029;-72
2024/01/05 01:54:04;;;;;;;18.75;7.95;;;4.10;99.90;;;;;;4994293;28;20058;-72
2024/01/05 01:56:32;;;;;;;19.27;9.38;;;4.10;99.90;;;;;;5012169;28;20518;-72
2024/01/05 01:58:57;;;;;;;17.42;8.70;;;4.10;99.90;;;;;;5011841;28;20037;-72
2024/01/05 02:01:23;;;;;;;16.67;8.50;;;4.10;99.90;;;;;;5007966;28;20045;-72
2024/01/05 02:03:50;;;;;;;21.02;9.68;;;4.10;99.90;;;;;;4975126;28;20076;-72
2024/01/05 02:06:15;;;;;;;19.10;8.88;;;4.10;99.90;;;;;;4994277;28;20049;-72
2024/01/05 02:08:43;;;;;;;19.73;8.38;;;4.10;99.90;;;;;;5011855;28;20034;-72
2024/01/05 02:11:09;;;;;;;19.67;9.15;;;4.10;99.90;;;;;;5011681;28;20044;-72
2024/01/05 02:13:34;;;;;;;17.17;8.38;;;4.10;99.90;;;;;;4977602;28;20045;-72
2024/01/05 02:16:00;;;;;;;17.45;8.43;;;4.10;99.90;;;;;;4993523;28;20046;-72
2024/01/05 02:18:25;;;;;;;18.98;8.77;;;4.10;99.90;;;;;;5011237;28;20038;-72
2024/01/05 02:20:51;;;;;;;16.02;8.30;;;4.10;99.90;;;;;;4993721;28;20587;-72
2024/01/05 02:23:23;;;;;;;15.15;7.57;;;4.10;99.90;;;;;;5011335;28;20042;-72
2024/01/05 02:25:49;;;;;;;17.95;8.52;;;4.10;99.90;;;;;;5011942;28;20397;-72
2024/01/05 02:28:15;;;;;;;20.00;9.00;;;4.10;99.90;;;;;;5011418;28;20034;-72
2024/01/05 02:30:41;;;;;;;17.75;8.73;;;4.10;99.90;;;;;;5013469;28;20034;-72
2024/01/05 02:33:06;;;;;;;18.33;9.70;;;4.10;99.90;;;;;;4995809;28;20050;-72
2024/01/05 02:35:32;;;;;;;18.02;8.98;;;4.20;99.90;;;;;;5014867;28;20046;-72
2024/01/05 02:37:57;;;;;;;19.90;9.05;;;4.20;99.90;;;;;;4997278;28;20128;-72
2024/01/05 02:40:23;;;;;;;19.42;9.50;;;4.20;99.90;;;;;;5014710;28;20144;-72
2024/01/05 02:42:48;;;;;;;20.95;9.57;;;4.20;99.90;;;;;;5013847;28;20038;-72
2024/01/05 02:45:20;;;;;;;18.08;9.38;;;4.20;99.90;;;;;;5013216;28;20034;-72
2024/01/05 02:47:49;;;;;;;19.75;9.40;;;4.20;99.90;;;;;;4994858;28;20038;-72
2024/01/05 02:50:15;;;;;;;16.83;9.27;;;4.20;99.90;;;;;;5013542;28;20289;-72
2024/01/05 02:52:41;;;;;;;19.85;9.60;;;4.20;99.90;;;;;;5012573;28;20091;-72
2024/01/05 02:55:07;;;;;;;18.70;9.43;;;4.20;99.90;;;;;;5013348;28;20037;-72
2024/01/05 02:57:33;;;;;;;18.75;10.00;;;4.20;99.90;;;;;;5013233;28;20108;-72
2024/01/05 02:59:58;;;;;;;22.30;10.23;;;4.20;99.90;;;;;;5012463;28;20049;-72
2024/01/05 03:02:24;;;;;;;20.60;9.85;;;4.20;99.90;;;;;;5011151;28;20054;-72
2024/01/05 03:04:51;;;;;;;20.92;10.20;;;4.20;99.90;;;;;;5014014;28;20092;-72
2024/01/05 03:07:18;;;;;;;19.90;9.48;;;4.20;99.90;;;;;;5012209;28;20033;-72
2024/01/05 03:09:43;;;;;;;19.08;9.07;;;4.20;99.90;;;;;;5012732;28;20609;-72
2024/01/05 03:12:09;;;;;;;20.60;9.85;;;4.20;99.90;;;;;;5011214;28;20062;-72
2024/01/05 03:14:34;;;;;;;17.88;9.18;;;4.20;99.90;;;;;;5013237;28;20033;-72
2024/01/05 03:17:01;;;;;;;18.67;9.00;;;4.20;99.90;;;;;;5013162;28;20073;-72
2024/01/05 03:19:27;;;;;;;19.65;9.45;;;4.20;99.90;;;;;;5011861;28;20049;-72
2024/01/05 03:21:53;;;;;;;16.02;8.52;;;4.20;99.90;;;;;;4994327;28;20049;-72
2024/01/05 03:24:18;;;;;;;15.45;8.55;;;4.20;99.90;;;;;;4995260;28;20038;-72
2024/01/05 03:26:44;;;;;;;19.90;9.32;;;4.30;99.90;;;;;;5013629;28;20034;-72
2024/01/05 03:29:10;;;;;;;16.75;8.02;;;4.20;99.90;;;;;;4994330;28;20034;-72
2024/01/05 03:31:35;;;;;;;17.02;8.93;;;4.30;99.90;;;;;;4994889;28;20686;-72
2024/01/05 03:34:01;;;;;;;16.02;8.52;;;4.30;99.90;;;;;;4996515;28;20042;-72
2024/01/05 03:36:26;;;;;;;15.07;7.78;;;4.20;99.90;;;;;;5014545;28;20403;-72
2024/01/05 03:38:52;;;;;;;13.45;7.70;;;4.30;99.90;;;;;;5014421;28;20053;-72
2024/01/05 03:41:18;;;;;;;16.25;7.88;;;4.30;99.90;;;;;;5012830;28;20060;-73
2024/01/05 03:43:44;;;;;;;17.00;9.27;;;4.30;99.90;;;;;;5014268;28;20099;-72
2024/01/05 03:46:11;;;;;;;16.98;8.65;;;4.30;99.90;;;;;;4996245;28;20030;-72
2024/01/05 03:48:36;;;;;;;16.63;8.95;;;4.30;99.90;;;;;;4981544;28;20117;-72
2024/01/05 03:51:03;;;;;;;16.98;8.90;;;4.40;99.90;;;;;;5016105;28;20080;-72
2024/01/05 03:53:29;;;;;;;17.67;8.45;;;4.30;99.90;;;;;;5006469;28;20152;-72
2024/01/05 03:55:57;;;;;;;14.80;7.70;;;4.30;99.90;;;;;;4996054;28;20121;-72
2024/01/05 03:58:23;;;;;;;16.38;8.77;;;4.40;99.90;;;;;;4996560;28;20066;-72
2024/01/05 04:00:48;;;;;;;14.48;8.30;;;4.30;99.90;;;;;;5013342;28;20069;-72
2024/01/05 04:03:14;;;;;;;16.23;9.38;;;4.30;99.90;;;;;;5013409;28;20038;-72
2024/01/05 04:05:40;;;;;;;18.90;9.55;;;4.40;99.90;;;;;;4996266;28;20041;-72
2024/01/05 04:08:05;;;;;;;15.80;9.02;;;4.40;99.90;;;;;;5013904;28;20044;-72
2024/01/05 04:10:31;;;;;;;20.15;10.35;;;4.40;99.90;;;;;;5013487;28;20120;-72
2024/01/05 04:12:56;;;;;;;17.88;9.45;;;4.40;99.90;;;;;;4995916;28;20049;-72
2024/01/05 04:15:23;;;;;;;18.33;9.73;;;4.40;99.90;;;;;;5013487;28;20120;-72
2024/01/05 04:17:48;;;;;;;15.93;8.90;;;4.30;99.90;;;;;;5011670;28;20400;-72
2024/01/05 04:20:14;;;;;;;20.13;9.98;;;4.30;99.90;;;;;;5012740;28;20133;-72
2024/01/05 04:22:39;;;;;;;20.77;9.85;;;4.30;99.90;;;;;;5012438;28;20069;-72
2024/01/05 04:25:05;;;;;;;19.30;8.98;;;4.40;99.90;;;;;;4995295;28;20046;-72
2024/01/05 04:27:31;;;;;;;18.83;9.88;;;4.40;99.90;;;;;;5013227;28;20034;-72
2024/01/05 04:29:57;;;;;;;20.80;10.93;;;4.30;99.90;;;;;;5013063;28;20088;-72
2024/01/05 04:32:22;;;;;;;20.83;10.68;;;4.30;99.90;;;;;;5013088;28;20048;-72
2024/01/05 04:34:48;;;;;;;22.88;11.10;;;4.40;99.90;;;;;;5012422;28;20077;-72
2024/01/05 04:37:13;;;;;;;20.27;11.00;;;4.40;99.90;;;;;;5012700;28;20041;-72
2024/01/05 04:39:39;;;;;;;18.90;10.18;;;4.40;99.90;;;;;;5012895;28;20046;-72
2024/01/05 04:42:05;;;;;;;22.50;11.65;;;4.40;99.90;;;;;;5011975;28;20105;-72
2024/01/05 04:44:30;;;;;;;19.27;10.45;;;4.40;99.90;;;;;;5008990;28;20580;-72
2024/01/05 04:46:56;;;;;;;22.92;12.73;;;4.50;99.90;;;;;;5012459;28;20042;-72
2024/01/05 04:49:21;;;;;;;21.13;11.95;;;4.50;99.90;;;;;;5012089;28;20113;-72
2024/01/05 04:51:47;;;;;;;23.58;12.75;;;4.50;99.90;;;;;;5011559;28;20049;-73
2024/01/05 04:54:13;;;;;;;23.55;11.55;;;4.50;99.90;;;;;;5012920;28;20038;-72
2024/01/05 04:56:38;;;;;;;18.55;10.73;;;4.50;99.90;;;;;;5012920;28;20096;-72
2024/01/05 04:59:04;;;;;;;21.85;12.18;;;4.50;99.90;;;;;;5012225;28;20077;-72
2024/01/05 05:01:29;;;;;;;23.85;12.32;;;4.50;99.90;;;;;;5008322;28;20073;-72
2024/01/05 05:03:55;;;;;;;25.73;13.13;;;4.50;99.90;;;;;;5012263;28;20403;-72
2024/01/05 05:06:20;;;;;;;26.08;13.95;;;4.50;99.90;;;;;;5010880;28;20074;-72
2024/01/05 05:08:46;;;;;;;21.75;12.40;;;4.60;99.90;;;;;;5009672;28;20057;-72
2024/01/05 05:11:11;;;;;;;22.40;12.63;;;4.50;99.90;;;;;;5012199;28;20457;-72
2024/01/05 05:13:37;;;;;;;24.30;13.05;;;4.60;99.90;;;;;;5010093;28;20042;-72
2024/01/05 05:16:03;;;;;;;23.25;11.70;;;4.60;99.90;;;;;;4993933;28;20531;-72
2024/01/05 05:18:28;;;;;;;23.33;12.43;;;4.60;99.90;;;;;;4991523;28;20399;-72
2024/01/05 05:20:54;;;;;;;23.70;12.95;;;4.60;99.90;;;;;;5011014;28;20661;-72
2024/01/05 05:23:19;;;;;;;23.60;12.60;;;4.60;99.90;;;;;;4994083;28;20060;-72
2024/01/05 05:25:45;;;;;;;22.35;12.15;;;4.60;99.90;;;;;;4994023;28;20095;-72
2024/01/05 05:28:10;;;;;;;24.42;12.65;;;4.70;99.90;;;;;;5008229;28;20041;-72
2024/01/05 05:30:36;;;;;;;23.85;13.43;;;4.60;99.90;;;;;;5011426;28;20033;-72
2024/01/05 05:33:02;;;;;;;22.83;12.10;;;4.60;99.90;;;;;;5011791;28;20472;-72
2024/01/05 05:35:27;;;;;;;22.23;12.25;;;4.60;99.90;;;;;;4994202;28;20049;-72
2024/01/05 05:37:53;;;;;;;23.90;13.38;;;4.70;99.90;;;;;;5011828;28;20045;-72
2024/01/05 05:40:18;;;;;;;25.63;13.15;;;4.70;99.90;;;;;;4989391;28;20046;-72
2024/01/05 05:42:44;;;;;;;26.33;13.55;;;4.70;99.90;;;;;;5010686;28;20045;-72
2024/01/05 05:45:10;;;;;;;26.05;12.90;;;4.70;99.90;;;;;;5011939;28;20042;-72
2024/01/05 05:47:35;;;;;;;26.63;13.10;;;4.70;99.90;;;;;;5010942;28;20042;-72
2024/01/05 05:50:05;;;;;;;27.77;13.07;;;4.70;99.90;;;;;;5003263;28;20035;-72
2024/01/05 05:52:30;;;;;;;26.10;13.43;;;4.70;99.90;;;;;;5008312;28;20053;-72
2024/01/05 05:54:56;;;;;;;27.25;13.70;;;4.80;99.90;;;;;;5011827;28;20038;-72
2024/01/05 05:57:21;;;;;;;24.20;13.20;;;4.80;99.90;;;;;;5004866;28;20037;-72
2024/01/05 05:59:47;;;;;;;27.58;14.10;;;4.80;99.90;;;;;;5011928;28;20034;-72
2024/01/05 06:02:13;;;;;;;28.10;14.52;;;4.80;99.90;;;;;;5011769;28;20042;-72
2024/01/05 06:04:38;;;;;;;29.10;14.35;;;4.80;99.90;;;;;;5011670;28;20033;-72
2024/01/05 06:07:04;;;;;;;29.23;15.40;;;4.80;99.90;;;;;;4986972;28;20124;-72
2024/01/05 06:09:30;;;;;;;27.63;14.52;;;4.80;99.90;;;;;;4998777;28;20034;-72
2024/01/05 06:11:55;;;;;;;29.67;14.85;;;4.90;99.90;;;;;;5000275;28;20034;-72
2024/01/05 06:14:21;;;;;;;30.63;14.90;;;4.90;99.90;;;;;;4996134;28;20042;-72
2024/01/05 06:16:47;;;;;;;33.00;15.27;;;4.90;99.90;;;;;;4995960;28;20092;-72
2024/01/05 06:19:12;;;;;;;31.33;15.90;;;4.90;99.90;;;;;;4985016;28;20038;-72
2024/01/05 06:21:38;;;;;;;27.73;14.55;;;4.90;99.90;;;;;;4993786;28;20401;-72
2024/01/05 06:24:03;;;;;;;30.88;16.05;;;4.90;99.90;;;;;;5008163;28;20112;-72
2024/01/05 06:26:30;;;;;;;30.35;15.82;;;4.90;99.90;;;;;;4986926;28;20108;-72
2024/01/05 06:28:56;;;;;;;30.23;16.02;;;4.90;99.90;;;;;;5011783;28;20045;-72
2024/01/05 06:31:23;;;;;;;32.20;16.40;;;4.90;99.90;;;;;;5011432;28;20124;-72
2024/01/05 06:33:48;;;;;;;30.92;15.63;;;4.90;99.90;;;;;;4993888;28;20050;-72
2024/01/05 06:36:14;;;;;;;34.65;17.35;;;4.90;99.90;;;;;;5011580;28;20046;-72
2024/01/05 06:38:39;;;;;;;33.58;16.17;;;5.00;99.90;;;;;;5011312;28;20087;-72
2024/01/05 06:41:05;;;;;;;32.85;16.08;;;5.00;99.90;;;;;;5009692;28;20443;-72
2024/01/05 06:43:30;;;;;;;32.90;16.35;;;5.00;99.90;;;;;;5004355;28;20030;-72
2024/01/05 06:45:56;;;;;;;39.70;17.88;;;5.00;99.90;;;;;;5010660;28;20124;-72
2024/01/05 06:48:21;;;;;;;33.63;17.00;;;5.00;99.90;;;;;;5011670;28;20121;-72
2024/01/05 06:50:47;;;;;;;33.92;17.67;;;5.00;99.90;;;;;;5006784;28;20088;-72
2024/01/05 06:53:12;;;;;;;38.50;18.25;;;5.00;99.90;;;;;;5010825;28;20034;-72
2024/01/05 06:55:38;;;;;;;42.97;18.75;;;5.00;99.90;;;;;;4993719;28;20052;-72
2024/01/05 06:58:04;;;;;;;38.22;17.08;;;5.00;99.90;;;;;;5011927;28;20523;-72
2024/01/05 07:00:30;;;;;;;36.05;17.42;;;5.00;99.90;;;;;;5007451;28;20042;-72
2024/01/05 07:02:56;;;;;;;35.88;18.05;;;5.00;99.90;;;;;;5011543;28;20400;-72
2024/01/05 07:05:21;;;;;;;37.60;18.27;;;5.00;99.90;;;;;;5010493;28;20117;-72
2024/01/05 07:07:47;;;;;;;34.40;16.85;;;5.00;99.90;;;;;;5011165;28;20048;-72
2024/01/05 07:10:13;;;;;;;39.17;17.42;;;5.00;99.90;;;;;;5011098;28;20038;-72
2024/01/05 07:12:38;;;;;;;34.38;17.13;;;5.10;99.90;;;;;;4997800;28;20061;-72
2024/01/05 07:15:05;;;;;;;37.55;16.08;;;5.10;99.90;;;;;;5006467;28;20057;-72
2024/01/05 07:17:31;;;;;;;40.17;17.55;;;5.10;99.90;;;;;;5012602;28;20442;-72
2024/01/05 07:19:57;;;;;;;37.00;17.35;;;5.10;99.90;;;;;;5014520;28;20041;-72
2024/01/05 07:22:22;;;;;;;38.58;17.17;;;5.10;99.90;;;;;;4997014;28;20107;-72
2024/01/05 07:24:48;;;;;;;36.50;16.98;;;5.20;99.90;;;;;;5011892;28;20125;-72
2024/01/05 07:27:16;;;;;;;35.42;17.45;;;5.20;99.90;;;;;;5014138;28;20041;-72
2024/01/05 07:29:42;;;;;;;37.92;17.52;;;5.20;99.90;;;;;;5013318;28;20037;-72
2024/01/05 07:32:08;;;;;;;39.03;18.00;;;5.20;99.90;;;;;;5013546;28;20088;-72
2024/01/05 07:34:33;;;;;;;36.15;16.92;;;5.20;99.90;;;;;;5013802;28;20050;-72
2024/01/05 07:36:59;;;;;;;35.03;16.42;;;5.20;99.90;;;;;;5014325;28;20041;-72
2024/01/05 07:39:24;;;;;;;40.75;17.30;;;5.30;99.90;;;;;;5014924;28;20045;-72
2024/01/05 07:41:50;;;;;;;40.17;17.52;;;5.30;99.90;;;;;;5014240;28;20125;-72
2024/01/05 07:44:16;;;;;;;37.45;17.05;;;5.30;99.90;;;;;;5014397;28;20168;-72
2024/01/05 07:46:42;;;;;;;38.13;16.85;;;5.30;99.90;;;;;;4997184;28;20046;-72
2024/01/05 07:49:08;;;;;;;38.63;16.95;;;5.30;99.90;;;;;;5014828;28;20049;-72
2024/01/05 07:51:34;;;;;;;36.63;16.75;;;5.40;99.90;;;;;;5013899;28;20042;-72
2024/01/05 07:53:59;;;;;;;38.58;17.05;;;5.40;99.90;;;;;;5014928;28;20074;-72
2024/01/05 07:56:25;;;;;;;37.03;16.55;;;5.40;99.90;;;;;;5014093;28;20050;-72
2024/01/05 07:58:50;;;;;;;72.03;19.98;;;5.40;99.90;;;;;;5014693;28;20046;-72
2024/01/05 08:01:20;;;;;;;39.13;16.92;;;5.40;99.90;;;;;;4996157;28;20069;-73
2024/01/05 08:03:47;;;;;;;45.10;19.77;;;5.40;99.90;;;;;;5014537;28;20045;-72
2024/01/05 08:06:22;;;;;;;35.10;16.42;;;5.50;99.90;;;;;;5014060;28;20038;-72
2024/01/05 08:08:49;;;;;;;48.25;19.02;;;5.50;99.90;;;;;;5013927;28;20034;-72
2024/01/05 08:11:16;;;;;;;38.35;16.95;;;5.50;99.90;;;;;;4995900;28;20038;-72
2024/01/05 08:13:43;;;;;;;51.75;18.02;;;5.50;99.90;;;;;;4980550;28;20369;-72
2024/01/05 08:16:09;;;;;;;47.17;16.67;;;5.60;99.90;;;;;;5012462;28;20129;-72
2024/01/05 08:18:39;;;;;;;38.20;16.45;;;5.60;99.90;;;;;;5013976;28;20125;-72
2024/01/05 08:21:05;;;;;;;38.73;16.33;;;5.60;99.90;;;;;;4994863;28;20121;-72
2024/01/05 08:23:34;;;;;;;33.70;15.82;;;5.60;99.90;;;;;;4994444;28;20565;-72
2024/01/05 08:26:00;;;;;;;38.72;16.75;;;5.60;99.90;;;;;;5013036;28;20132;-72
2024/01/05 08:28:26;;;;;;;36.47;16.05;;;5.70;99.90;;;;;;5007689;28;20038;-72
2024/01/05 08:30:52;;;;;;;39.42;16.05;;;5.70;99.90;;;;;;5011628;28;20053;-72
2024/01/05 08:33:18;;;;;;;35.95;15.05;;;5.70;99.90;;;;;;4995164;28;20046;-72
2024/01/05 08:35:43;;;;;;;34.63;16.40;;;5.70;99.90;;;;;;5012513;28;20037;-72
2024/01/05 08:38:09;;;;;;;33.45;13.80;;;5.80;99.90;;;;;;5013762;28;20074;-72
2024/01/05 08:40:34;;;;;;;33.53;14.90;;;5.80;99.90;;;;;;5012961;28;20042;-72
2024/01/05 08:43:00;;;;;;;32.45;15.50;;;5.80;99.90;;;;;;5005714;28;20041;-72
2024/01/05 08:45:27;;;;;;;33.30;13.90;;;5.80;99.90;;;;;;5013793;28;20109;-72
2024/01/05 08:47:53;;;;;;;32.53;13.98;;;5.90;99.90;;;;;;5012614;28;20041;-72
2024/01/05 08:50:19;;;;;;;28.02;13.77;;;5.90;99.90;;;;;;4978317;28;20038;-72
2024/01/05 08:52:45;;;;;;;27.80;14.07;;;5.90;99.90;;;;;;5012130;28;20103;-72
2024/01/05 08:55:14;;;;;;;35.88;13.98;;;5.90;99.90;;;;;;5012840;28;20415;-72
2024/01/05 08:57:40;;;;;;;31.77;14.10;;;6.00;99.90;;;;;;5012863;28;20049;-72
2024/01/05 09:00:09;;;;;;;33.92;13.73;;;6.00;99.90;;;;;;5012593;28;20038;-72
2024/01/05 09:02:36;;;;;;;31.05;13.25;;;5.90;99.90;;;;;;5012185;28;20050;-72
2024/01/05 09:05:04;;;;;;;26.60;12.20;;;6.00;99.90;;;;;;5011706;28;20092;-72
2024/01/05 09:07:33;;;;;;;31.02;13.25;;;6.00;99.90;;;;;;5012056;28;20073;-73
2024/01/05 09:09:58;;;;;;;27.75;11.20;;;6.10;99.90;;;;;;4977574;28;20038;-73
2024/01/05 09:12:24;;;;;;;31.05;12.90;;;6.10;99.90;;;;;;4994758;28;20060;-73
2024/01/05 09:14:50;;;;;;;28.10;12.10;;;6.10;99.90;;;;;;5005326;28;20044;-74
2024/01/05 09:17:16;;;;;;;25.75;11.48;;;6.10;99.90;;;;;;4994635;28;20042;-73
2024/01/05 09:19:42;;;;;;;23.83;11.23;;;6.20;99.90;;;;;;4994086;28;20416;-73
2024/01/05 09:22:08;;;;;;;20.05;10.55;;;6.20;99.90;;;;;;5012121;28;20045;-73
2024/01/05 09:24:33;;;;;;;22.13;10.90;;;6.20;99.90;;;;;;4995701;28;20484;-73
2024/01/05 09:27:02;;;;;;;24.27;10.82;;;6.20;99.90;;;;;;5028734;28;20026;-73
2024/01/05 09:29:32;;;;;;;24.88;10.25;;;6.20;99.90;;;;;;5018128;28;20064;-73
2024/01/05 09:31:58;;;;;;;24.23;10.83;;;6.30;99.90;;;;;;5011475;28;20045;-73
2024/01/05 09:34:23;;;;;;;22.42;10.07;;;6.30;99.90;;;;;;4993295;28;20045;-73
2024/01/05 09:36:50;;;;;;;23.98;10.02;;;6.30;99.90;;;;;;5011257;28;20073;-74
2024/01/05 09:39:16;;;;;;;20.00;10.13;;;6.40;99.90;;;;;;5011503;28;20065;-73
2024/01/05 09:41:45;;;;;;;21.67;9.43;;;6.40;99.90;;;;;;5004913;28;20120;-72
2024/01/05 09:44:12;;;;;;;26.10;9.70;;;6.40;99.90;;;;;;5009233;28;20061;-72
2024/01/05 09:46:41;;;;;;;22.70;8.60;;;6.40;99.90;;;;;;4994201;28;20412;-72
2024/01/05 09:49:08;;;;;;;36.38;8.30;;;6.50;99.90;;;;;;5005583;28;20045;-72
2024/01/05 09:51:35;;;;;;;14.05;6.25;;;6.50;99.90;;;;;;5011268;28;20467;-72
2024/01/05 09:54:01;;;;;;;19.50;7.20;;;6.50;99.90;;;;;;5011226;28;20041;-72
2024/01/05 09:56:27;;;;;;;19.38;6.68;;;6.50;99.90;;;;;;5012110;28;20045;-72
2024/01/05 09:58:54;;;;;;;16.63;7.32;;;6.60;99.90;;;;;;4994246;28;20038;-72
2024/01/05 10:01:30;;;;;;;17.73;6.78;;;6.60;99.90;;;;;;4987457;28;20046;-72
2024/01/05 10:03:57;;;;;;;20.48;7.68;;;6.60;99.90;;;;;;5008388;28;20030;-71
2024/01/05 10:06:24;;;;;;;20.08;7.55;;;6.70;99.90;;;;;;5009027;28;20046;-71
2024/01/05 10:08:54;;;;;;;22.08;7.47;;;6.70;99.90;;;;;;5009577;28;20046;-71
2024/01/05 10:11:33;;;;;;;19.10;8.00;;;6.70;99.90;;;;;;5010341;28;20117;-72
2024/01/05 10:14:00;;;;;;;18.50;7.93;;;6.60;99.90;;;;;;5010975;28;20312;-72
2024/01/05 10:16:34;;;;;;;15.77;7.22;;;6.70;99.90;;;;;;5011993;28;20041;-72
2024/01/05 10:19:13;;;;;;;21.73;7.22;;;6.70;99.90;;;;;;5004523;28;20042;-72
2024/01/05 10:21:40;;;;;;;13.52;5.30;;;6.70;99.90;;;;;;5011520;28;20121;-72
2024/01/05 10:24:24;;;;;;;15.55;6.88;;;6.70;99.90;;;;;;5010362;28;20045;-72
2024/01/05 10:27:04;;;;;;;18.25;5.20;;;6.70;99.90;;;;;;5007056;28;20042;-72
2024/01/05 10:29:30;;;;;;;12.15;4.65;;;6.70;99.90;;;;;;4994091;28;20404;-72
2024/01/05 10:32:18;;;;;;;10.23;3.75;;;6.70;99.90;;;;;;4976705;28;20038;-73
2024/01/05 10:34:46;;;;;;;6.38;3.20;;;6.70;99.90;;;;;;4994216;28;20107;-73
2024/01/05 10:37:13;;;;;;;7.65;2.80;;;6.70;99.90;;;;;;5004366;28;20042;-73
2024/01/05 10:39:44;;;;;;;6.43;2.60;;;6.80;99.90;;;;;;5010752;28;20049;-73
2024/01/05 10:42:26;;;;;;;6.18;2.42;;;6.80;99.90;;;;;;4985535;28;20057;-72
2024/01/05 10:44:54;;;;;;;6.38;2.53;;;6.80;99.90;;;;;;4994124;28;20049;-73
2024/01/05 10:47:22;;;;;;;5.88;2.15;;;6.80;99.90;;;;;;4994206;28;20037;-72
2024/01/05 10:49:52;;;;;;;5.95;2.22;;;6.80;99.90;;;;;;4993967;28;20372;-72
2024/01/05 10:52:24;;;;;;;5.25;1.85;;;6.90;99.90;;;;;;4996620;28;20052;-73
2024/01/05 10:54:52;;;;;;;4.65;1.60;;;6.90;99.90;;;;;;4994350;28;20176;-72
2024/01/05 10:57:18;;;;;;;4.35;1.70;;;6.90;99.90;;;;;;4997796;28;20519;-72
2024/01/05 10:59:48;;;;;;;5.07;1.80;;;6.90;99.90;;;;;;4997507;28;20436;-72
2024/01/05 11:02:23;;;;;;;2.92;1.55;;;6.90;99.90;;;;;;4994536;28;20388;-72
2024/01/05 11:04:57;;;;;;;3.50;1.58;;;6.90;99.90;;;;;;5015297;28;20045;-72
2024/01/05 11:07:23;;;;;;;2.60;1.40;;;6.90;99.90;;;;;;4997534;28;20042;-72
2024/01/05 11:10:06;;;;;;;3.67;1.20;;;6.90;99.90;;;;;;5014550;28;20032;-72
2024/01/05 11:12:53;;;;;;;2.53;1.33;;;6.90;99.90;;;;;;5014923;28;20048;-72
2024/01/05 11:15:46;;;;;;;2.97;1.23;;;6.90;99.90;;;;;;4994405;28;20041;-72
2024/01/05 11:18:42;;;;;;;1.50;1.10;;;6.90;99.90;;;;;;4996377;28;20498;-72
2024/01/05 11:21:16;;;;;;;1.00;0.90;;;6.90;99.90;;;;;;4994642;28;20418;-72
2024/01/05 11:23:43;;;;;;;3.22;1.17;;;6.90;99.90;;;;;;5014070;28;20050;-72
2024/01/05 11:26:32;;;;;;;1.17;0.80;;;6.90;99.90;;;;;;4993173;28;20495;-72
2024/01/05 11:28:57;;;;;;;1.83;0.90;;;6.90;99.90;;;;;;5013578;28;20041;-72
2024/01/05 11:31:45;;;;;;;1.85;0.90;;;6.90;99.90;;;;;;5014122;28;20092;-72
2024/01/05 11:34:31;;;;;;;2.03;0.90;;;6.90;99.90;;;;;;4996268;28;20452;-72
2024/01/05 11:36:57;;;;;;;1.73;0.70;;;6.90;99.90;;;;;;5012616;28;20049;-72
2024/01/05 11:39:41;;;;;;;0.70;0.52;;;7.00;99.90;;;;;;4995464;28;20103;-72
2024/01/05 11:42:07;;;;;;;0.55;0.55;;;7.00;99.90;;;;;;4994147;28;20041;-72
2024/01/05 11:44:34;;;;;;;1.42;0.60;;;7.00;99.90;;;;;;5012024;28;20042;-72
2024/01/05 11:47:02;;;;;;;1.50;0.73;;;7.00;99.90;;;;;;4994824;28;20060;-72
2024/01/05 11:49:39;;;;;;;1.80;0.80;;;7.00;99.90;;;;;;4995491;28;20041;-72
2024/01/05 11:52:05;;;;;;;1.38;0.73;;;6.90;99.90;;;;;;5065313;22;20052;-72
2024/01/05 11:54:32;;;;;;;0.88;0.75;;;6.90;99.90;;;;;;5075368;28;20119;-72
2024/01/05 11:56:59;;;;;;;2.20;0.70;;;6.90;99.90;;;;;;5074574;28;20032;-71
2024/01/05 11:59:25;;;;;;;1.42;0.70;;;6.90;99.90;;;;;;5074271;28;20123;-71
2024/01/05 12:01:53;;;;;;;0.95;0.80;;;6.90;99.90;;;;;;5061186;28;20128;-71
2024/01/05 12:04:19;;;;;;;1.98;0.90;;;6.90;99.90;;;;;;5052750;28;20072;-71
2024/01/05 12:06:54;;;;;;;1.60;0.90;;;6.90;99.90;;;;;;5055355;28;20041;-71
2024/01/05 12:09:20;;;;;;;3.22;0.90;;;6.90;99.90;;;;;;5052258;28;20076;-71
2024/01/05 12:11:47;;;;;;;2.25;1.00;;;6.90;99.90;;;;;;5052183;28;20072;-71
2024/01/05 12:14:25;;;;;;;1.60;0.95;;;6.80;99.90;;;;;;5053019;28;20071;-71
2024/01/05 12:16:51;;;;;;;1.33;1.10;;;6.80;99.90;;;;;;5061891;28;20052;-71
2024/01/05 12:19:23;;;;;;;1.55;1.20;;;6.80;99.90;;;;;;5053554;28;20398;-71
2024/01/05 12:21:52;;;;;;;1.73;1.05;;;6.80;99.90;;;;;;5052929;28;20051;-71
2024/01/05 12:24:18;;;;;;;2.55;1.10;;;6.80;99.90;;;;;;5053439;28;20037;-71
2024/01/05 12:26:44;;;;;;;1.10;1.00;;;6.80;99.90;;;;;;5053979;28;20059;-71
2024/01/05 12:29:11;;;;;;;1.15;0.90;;;6.70;99.90;;;;;;5053056;28;20029;-71
2024/01/05 12:31:38;;;;;;;1.70;1.00;;;6.80;99.90;;;;;;5053340;28;20051;-71
2024/01/05 12:34:04;;;;;;;1.58;1.02;;;6.80;99.90;;;;;;5049750;28;20047;-71
2024/01/05 12:36:31;;;;;;;1.80;1.35;;;6.70;99.90;;;;;;5045228;28;20090;-71
2024/01/05 12:39:10;;;;;;;2.95;1.20;;;6.70;99.90;;;;;;5051478;28;20124;-71
2024/01/05 12:41:39;;;;;;;1.10;1.00;;;6.70;99.90;;;;;;5051765;28;20379;-71
2024/01/05 12:44:07;;;;;;;1.63;1.10;;;6.70;99.90;;;;;;5052269;28;20102;-71